EDDM

Munich International Airport

Munich, Germany
METAR EDDM 211520Z 26005KT 210V310 CAVOK 26/08 Q1018 NOSIG
Observed Flight Rules
Apr-21 @ 15:20 UTC (21 minutes ago) Visual Flight Rules
Wind Visibility Clouds
260° at 5 knots 10,000+ meters
  • Clear skies
Temperatures Readings
Current 26°C / 79°F
Dewpoint 8°C / 46°F
Humidity 32%
Altimeter 30.06" Hg
Pressure 1018 hPa
Elevation 447
METAR EDDM 211520Z 26005KT 210V310 CAVOK 26/08 Q1018 NOSIG
Observed Flight Rules
Apr-21 @ 15:20 UTC
(21 minutes ago)
VFR
Wind Visibility
260° at 5 knots 10,000+ meters
Clouds
  • Clear skies
Temperature Dewpoint
26°C / 79°F 8°C / 46°F
Humidity Altimeter Pressure
32% 30.06" Hg 1018 hPa